Time;durP1;ratioP1;P1;durP2;ratioP2;P2;SDS_P1;SDS_P2;PMS_P1;PMS_P2;Temp;Humidity;BMP_temperature;BMP_pressure;BME280_temperature;BME280_humidity;BME280_pressure;Samples;Min_cycle;Max_cycle;Signal;HPM_P1;HPM_P2
2022/01/15 00:00:37;;;;;;;;;81.25;70.75;;;;;8.69;58.76;102461.81;2088242;28;47229;-60
2022/01/15 00:01:38;;;;;;;;;82.50;69.75;;;;;8.68;59.02;102457.38;2085164;28;46932;-59
2022/01/15 00:02:38;;;;;;;;;85.25;75.25;;;;;8.68;58.78;102455.63;2087352;28;47354;-60
2022/01/15 00:03:39;;;;;;;;;85.00;80.25;;;;;8.66;58.67;102457.38;2086122;28;47177;-60
2022/01/15 00:04:39;;;;;;;;;88.00;78.25;;;;;8.67;58.75;102463.56;2087149;28;47137;-61
2022/01/15 00:05:40;;;;;;;;;84.00;73.00;;;;;8.66;58.91;102459.13;2087105;28;47482;-58
2022/01/15 00:06:40;;;;;;;;;84.00;73.75;;;;;8.65;58.97;102454.72;2087874;28;47499;-59
2022/01/15 00:07:44;;;;;;;;;81.25;68.25;;;;;8.63;58.91;102457.31;2086824;28;45638;-60
2022/01/15 00:08:44;;;;;;;;;81.25;69.75;;;;;8.63;58.93;102459.94;2087493;28;47246;-60
2022/01/15 00:09:49;;;;;;;;;78.75;64.00;;;;;8.62;58.82;102452.88;2086665;28;46823;-59
2022/01/15 00:10:50;;;;;;;;;84.50;73.25;;;;;8.61;58.92;102451.09;2087855;28;47514;-60
2022/01/15 00:11:52;;;;;;;;;83.25;71.25;;;;;8.62;58.84;102449.34;2085587;28;47513;-60
2022/01/15 00:12:54;;;;;;;;;80.25;69.00;;;;;8.62;58.85;102449.34;2087582;28;47915;-60
2022/01/15 00:13:58;;;;;;;;;82.00;68.25;;;;;8.60;59.02;102451.97;2086426;28;47275;-60
2022/01/15 00:15:00;;;;;;;;;82.25;70.00;;;;;8.60;58.92;102451.97;2087343;28;47319;-59
2022/01/15 00:16:12;;;;;;;;;79.50;67.75;;;;;8.61;59.20;102450.22;2086489;28;47368;-60
2022/01/15 00:17:21;;;;;;;;;79.25;68.25;;;;;8.60;59.13;102446.69;2088645;28;45865;-60
2022/01/15 00:18:39;;;;;;;;;83.00;68.50;;;;;8.61;58.89;102447.56;2087521;28;47634;-60
2022/01/15 00:19:42;;;;;;;;;82.50;68.75;;;;;8.60;58.94;102451.97;2087009;28;45271;-60
2022/01/15 00:20:42;;;;;;;;;80.00;65.00;;;;;8.59;58.80;102447.56;2087265;28;46123;-61
2022/01/15 00:21:44;;;;;;;;;83.25;71.50;;;;;8.59;59.13;102446.66;2085893;28;47258;-59
2022/01/15 00:22:46;;;;;;;;;81.50;68.00;;;;;8.59;59.08;102446.66;2087722;28;47603;-60
2022/01/15 00:23:46;;;;;;;;;80.25;65.50;;;;;8.58;59.10;102450.19;2082451;28;47315;-60
2022/01/15 00:24:47;;;;;;;;;80.25;66.75;;;;;8.57;58.98;102451.06;2086831;28;47518;-60
2022/01/15 00:25:47;;;;;;;;;81.25;67.50;;;;;8.55;59.13;102445.75;2086330;28;47409;-60
2022/01/15 00:26:48;;;;;;;;;84.00;71.50;;;;;8.54;58.93;102446.63;2086983;28;47148;-60
2022/01/15 00:27:48;;;;;;;;;79.00;67.00;;;;;8.54;59.12;102447.50;2086395;28;47264;-60
2022/01/15 00:28:49;;;;;;;;;83.50;74.25;;;;;8.55;59.10;102446.63;2087006;28;47390;-60
2022/01/15 00:29:49;;;;;;;;;80.75;69.25;;;;;8.54;59.19;102442.22;2085537;28;47432;-60
2022/01/15 00:30:49;;;;;;;;;83.25;74.50;;;;;8.54;58.92;102439.56;2087503;28;47678;-60
2022/01/15 00:31:50;;;;;;;;;82.25;71.00;;;;;8.54;59.13;102438.66;2085662;28;47140;-60
2022/01/15 00:32:52;;;;;;;;;83.25;71.50;;;;;8.55;58.92;102443.09;2087638;28;47370;-59
2022/01/15 00:33:52;;;;;;;;;84.25;74.50;;;;;8.54;59.10;102441.31;2085426;28;47910;-60
2022/01/15 00:34:53;;;;;;;;;80.00;68.25;;;;;8.53;59.11;102436.91;2087284;28;47572;-60
2022/01/15 00:35:53;;;;;;;;;83.50;76.50;;;;;8.53;59.02;102434.25;2085616;28;47777;-60
2022/01/15 00:36:54;;;;;;;;;84.75;76.75;;;;;8.52;59.20;102438.66;2087586;28;47605;-60
2022/01/15 00:37:55;;;;;;;;;82.75;73.00;;;;;8.51;59.13;102442.16;2086554;28;47639;-60
2022/01/15 00:38:55;;;;;;;;;88.75;79.50;;;;;8.50;59.46;102439.47;2087216;28;47213;-60
2022/01/15 00:39:55;;;;;;;;;84.25;75.75;;;;;8.50;59.29;102440.34;2085667;28;47163;-60
2022/01/15 00:40:56;;;;;;;;;79.75;66.75;;;;;8.50;59.08;102431.53;2087661;28;47375;-61
2022/01/15 00:41:56;;;;;;;;;83.50;75.25;;;;;8.50;59.02;102434.19;2086244;28;47067;-60
2022/01/15 00:42:57;;;;;;;;;87.00;79.75;;;;;8.49;59.09;102435.06;2087701;28;47007;-60
2022/01/15 00:43:57;;;;;;;;;84.50;73.75;;;;;8.49;59.27;102428.00;2085091;28;47186;-61
2022/01/15 00:44:59;;;;;;;;;84.75;73.50;;;;;8.49;58.97;102427.13;2087241;28;47160;-60
2022/01/15 00:46:00;;;;;;;;;85.75;74.25;;;;;8.48;59.18;102428.88;2086147;28;47523;-60
2022/01/15 00:47:00;;;;;;;;;83.75;75.25;;;;;8.48;59.18;102427.97;2087849;28;47189;-60
2022/01/15 00:48:02;;;;;;;;;86.75;79.50;;;;;8.48;59.13;102430.63;2086466;28;47468;-60
2022/01/15 00:49:03;;;;;;;;;86.75;77.25;;;;;8.48;59.34;102427.97;2087165;28;46987;-60
2022/01/15 00:50:06;;;;;;;;;85.00;76.00;;;;;8.48;59.30;102430.63;2085307;28;47082;-61
2022/01/15 00:51:06;;;;;;;;;86.50;76.25;;;;;8.47;59.35;102424.44;2081221;28;47443;-60
2022/01/15 00:52:07;;;;;;;;;81.50;71.25;;;;;8.46;59.05;102419.13;2085712;28;47711;-61
2022/01/15 00:53:08;;;;;;;;;86.00;75.25;;;;;8.47;59.18;102426.22;2084715;28;47488;-61
2022/01/15 00:54:08;;;;;;;;;81.25;68.75;;;;;8.45;59.38;102417.38;2085821;28;47445;-60
2022/01/15 00:55:12;;;;;;;;;84.75;76.00;;;;;8.44;59.13;102429.69;2087685;28;47345;-60
2022/01/15 00:56:12;;;;;;;;;82.25;73.50;;;;;8.43;59.29;102421.75;2087072;28;46144;-60
2022/01/15 00:57:12;;;;;;;;;85.75;75.25;;;;;8.42;59.22;102419.97;2087190;28;47687;-60
2022/01/15 00:58:13;;;;;;;;;84.00;75.75;;;;;8.42;59.50;102423.50;2087161;28;47482;-59
2022/01/15 00:59:14;;;;;;;;;79.75;68.75;;;;;8.41;59.24;102431.44;2086533;28;47196;-57
2022/01/15 01:00:18;;;;;;;;;85.50;73.50;;;;;8.40;59.16;102425.25;2087180;28;46990;-59
2022/01/15 01:01:20;;;;;;;;;84.25;72.75;;;;;8.40;59.24;102425.25;2086456;28;47645;-59
2022/01/15 01:02:21;;;;;;;;;85.00;76.50;;;;;8.40;59.24;102427.91;2086350;28;47176;-60
2022/01/15 01:03:21;;;;;;;;;86.00;77.00;;;;;8.40;59.40;102421.72;2085907;28;47065;-59
2022/01/15 01:04:21;;;;;;;;;84.75;75.50;;;;;8.39;59.28;102426.13;2087393;28;47310;-59
2022/01/15 01:05:22;;;;;;;;;86.75;78.50;;;;;8.38;59.30;102420.78;2086278;28;47521;-59
2022/01/15 01:06:23;;;;;;;;;79.75;68.25;;;;;8.36;59.22;102420.75;2087124;28;47457;-60
2022/01/15 01:07:23;;;;;;;;;79.75;70.50;;;;;8.36;59.41;102411.94;2086132;28;47329;-60
2022/01/15 01:08:24;;;;;;;;;78.75;68.50;;;;;8.36;59.44;102415.47;2087378;28;47503;-59
2022/01/15 01:09:30;;;;;;;;;78.25;63.00;;;;;8.35;59.42;102412.81;2086048;28;45290;-59
2022/01/15 01:11:56;;;;;;;;;79.75;67.25;;;;;8.35;59.53;102415.44;2085821;28;47395;-60
2022/01/15 01:22:58;;;;;;;;;75.50;59.00;;;;;8.27;59.52;102395.06;2085326;28;47590;-59
2022/01/15 01:24:00;;;;;;;;;76.50;64.75;;;;;8.27;59.54;102392.41;2080294;28;47533;-60
2022/01/15 01:25:01;;;;;;;;;81.00;64.25;;;;;8.28;59.39;102393.28;2080742;28;47443;-58
2022/01/15 01:26:12;;;;;;;;;80.75;65.25;;;;;8.29;59.48;102391.53;2084281;28;47260;-59
2022/01/15 01:27:23;;;;;;;;;81.50;70.00;;;;;8.26;59.53;102390.63;2087063;28;47607;-59
2022/01/15 01:28:35;;;;;;;;;80.50;69.25;;;;;8.27;59.53;102394.16;2087034;28;47229;-62
2022/01/15 01:30:58;;;;;;;;;78.75;66.75;;;;;8.25;59.56;102386.19;2087640;28;47663;-60
2022/01/15 01:34:09;;;;;;;;;85.50;74.50;;;;;8.24;59.73;102381.75;2086848;28;47264;-59
2022/01/15 01:35:16;;;;;;;;;86.50;77.25;;;;;8.24;59.52;102380.88;2086941;28;47714;-60
2022/01/15 01:36:24;;;;;;;;;85.50;75.25;;;;;8.24;59.46;102381.75;2087391;28;47800;-61
2022/01/15 01:37:36;;;;;;;;;83.50;73.75;;;;;8.23;59.72;102376.44;2087166;28;47522;-60
2022/01/15 01:38:44;;;;;;;;;82.50;70.00;;;;;8.24;59.64;102380.88;2086790;28;47513;-59
2022/01/15 01:39:48;;;;;;;;;79.25;66.75;;;;;8.23;59.68;102377.34;2087415;28;47161;-60
2022/01/15 01:40:50;;;;;;;;;79.25;68.00;;;;;8.24;59.66;102367.66;2087522;28;48043;-60
2022/01/15 01:42:09;;;;;;;;;80.50;71.00;;;;;8.24;59.47;102376.47;2085240;28;46939;-60
2022/01/15 01:44:40;;;;;;;;;82.50;67.50;;;;;8.23;59.71;102373.81;2070602;28;47197;-60
2022/01/15 01:45:46;;;;;;;;;80.25;66.75;;;;;8.22;59.30;102372.03;2087389;28;47815;-60
2022/01/15 01:46:53;;;;;;;;;78.25;65.00;;;;;8.22;59.74;102374.66;2087766;28;45262;-60
2022/01/15 01:47:53;;;;;;;;;83.00;69.25;;;;;8.22;59.46;102372.91;2087132;28;47388;-59
2022/01/15 01:48:56;;;;;;;;;83.25;73.75;;;;;8.22;59.47;102377.31;2086179;28;47121;-59
2022/01/15 01:49:56;;;;;;;;;80.00;66.25;;;;;8.22;59.39;102377.31;2087195;28;47893;-59
2022/01/15 01:50:56;;;;;;;;;80.50;62.00;;;;;8.21;59.39;102378.19;2087648;28;47628;-58
2022/01/15 01:51:57;;;;;;;;;72.75;58.50;;;;;8.20;59.47;102379.94;2087036;28;47130;-59
2022/01/15 01:52:59;;;;;;;;;72.50;58.00;;;;;8.20;59.38;102377.31;2087367;28;47503;-59
2022/01/15 01:54:02;;;;;;;;;72.80;57.80;;;;;8.20;59.12;102373.78;2087271;28;47678;-60
2022/01/15 01:55:03;;;;;;;;;77.40;60.60;;;;;8.19;59.04;102378.16;2086907;28;47400;-60
2022/01/15 01:56:04;;;;;;;;;75.60;60.20;;;;;8.17;58.94;102382.56;2087204;28;47713;-59
2022/01/15 01:57:05;;;;;;;;;73.75;59.00;;;;;8.16;59.17;102378.13;2087663;28;47225;-59
2022/01/15 01:58:05;;;;;;;;;75.75;59.00;;;;;8.16;59.01;102380.78;2087339;28;47343;-60
2022/01/15 01:59:07;;;;;;;;;75.25;60.00;;;;;8.16;58.99;102378.13;2086635;28;47015;-59
2022/01/15 02:00:10;;;;;;;;;71.80;58.60;;;;;8.16;58.86;102380.78;2087051;28;47322;-60
2022/01/15 02:01:11;;;;;;;;;75.60;61.40;;;;;8.16;59.02;102369.31;2086883;28;47758;-60
2022/01/15 02:02:11;;;;;;;;;75.75;60.25;;;;;8.15;59.00;102368.41;2085518;28;47849;-60
2022/01/15 02:03:12;;;;;;;;;76.75;60.75;;;;;8.16;58.94;102372.84;2087263;28;47676;-60
2022/01/15 02:04:12;;;;;;;;;79.00;62.75;;;;;8.15;59.00;102367.53;2087399;28;47250;-60
2022/01/15 02:05:13;;;;;;;;;77.50;63.00;;;;;8.15;58.97;102365.78;2087512;28;47391;-59
2022/01/15 02:06:15;;;;;;;;;79.50;63.00;;;;;8.15;59.14;102364.88;2087235;28;47648;-59
2022/01/15 02:07:16;;;;;;;;;72.00;58.75;;;;;8.14;58.93;102364.00;2085414;28;47282;-59
2022/01/15 02:08:17;;;;;;;;;72.00;59.00;;;;;8.14;58.92;102364.00;2087371;28;47631;-60
2022/01/15 02:09:20;;;;;;;;;76.25;61.25;;;;;8.15;59.03;102364.88;2087213;28;45490;-60
2022/01/15 02:10:21;;;;;;;;;77.25;64.75;;;;;8.14;59.09;102361.34;2087561;28;47697;-59
2022/01/15 02:11:24;;;;;;;;;79.25;59.75;;;;;8.14;58.84;102356.06;2087436;28;48017;-60
2022/01/15 02:12:25;;;;;;;;;80.00;64.50;;;;;8.13;59.10;102359.59;2086989;28;47830;-59
2022/01/15 02:13:25;;;;;;;;;75.75;64.25;;;;;8.14;58.91;102366.66;2086538;28;47365;-60
2022/01/15 02:14:30;;;;;;;;;78.75;64.50;;;;;8.13;58.93;102359.59;2087296;28;47501;-60
2022/01/15 02:15:30;;;;;;;;;80.00;68.25;;;;;8.12;59.30;102357.78;2084382;28;47503;-60
2022/01/15 02:16:31;;;;;;;;;82.00;68.50;;;;;8.13;59.07;102362.22;2086748;28;47289;-61
2022/01/15 02:17:31;;;;;;;;;76.75;64.50;;;;;8.12;59.09;102354.25;2091644;28;47177;-59
2022/01/15 02:18:34;;;;;;;;;80.50;65.00;;;;;8.11;59.04;102356.00;2088943;28;47054;-60
2022/01/15 02:19:56;;;;;;;;;78.50;67.00;;;;;8.11;59.26;102355.13;2086930;28;47513;-60
2022/01/15 02:23:33;;;;;;;;;78.25;63.75;;;;;8.08;59.21;102347.16;2087099;28;47760;-59
2022/01/15 02:24:34;;;;;;;;;76.75;61.25;;;;;8.09;59.21;102347.16;2087230;28;47467;-59
2022/01/15 02:25:46;;;;;;;;;76.00;63.25;;;;;8.07;59.22;102348.91;2086608;28;47567;-58
2022/01/15 02:26:47;;;;;;;;;76.25;61.50;;;;;8.07;59.35;102350.66;2086868;28;47262;-59
2022/01/15 02:27:47;;;;;;;;;78.50;63.50;;;;;8.06;59.21;102349.78;2086268;28;47239;-59
2022/01/15 02:28:56;;;;;;;;;80.25;66.75;;;;;8.07;59.25;102348.00;2086888;28;47013;-58
2022/01/15 02:30:00;;;;;;;;;73.40;58.20;;;;;8.06;59.20;102348.88;2087047;28;47646;-59
2022/01/15 02:31:13;;;;;;;;;77.25;64.50;;;;;8.04;59.33;102346.22;2086988;28;47717;-59
2022/01/15 02:32:13;;;;;;;;;72.00;59.25;;;;;8.04;59.18;102348.84;2086731;28;47247;-58
2022/01/15 02:33:14;;;;;;;;;76.75;64.00;;;;;8.04;59.58;102361.19;2087373;28;45721;-60
2022/01/15 02:34:14;;;;;;;;;78.25;64.75;;;;;8.04;59.25;102358.56;2087260;28;47944;-59
2022/01/15 02:35:15;;;;;;;;;79.75;64.00;;;;;8.04;59.38;102354.16;2087151;28;47288;-59
2022/01/15 02:36:28;;;;;;;;;78.00;62.50;;;;;8.04;59.34;102347.97;2086486;28;48168;-60
2022/01/15 02:37:31;;;;;;;;;78.25;63.00;;;;;8.04;59.53;102348.84;2086750;28;47188;-60
2022/01/15 02:38:31;;;;;;;;;81.25;64.75;;;;;8.05;59.46;102353.28;2086904;28;47337;-59
2022/01/15 02:39:35;;;;;;;;;80.25;66.50;;;;;8.04;59.35;102347.97;2086798;28;47442;-59
2022/01/15 02:40:36;;;;;;;;;79.25;65.50;;;;;8.04;59.39;102351.50;2087210;28;47127;-59
2022/01/15 02:41:38;;;;;;;;;77.75;64.50;;;;;8.04;59.49;102342.69;2087285;28;46703;-59
2022/01/15 02:42:39;;;;;;;;;76.50;62.50;;;;;8.04;59.32;102347.97;2087182;28;47312;-59
2022/01/15 02:43:39;;;;;;;;;77.00;61.00;;;;;8.05;59.35;102350.63;2087019;28;47641;-60
2022/01/15 02:44:43;;;;;;;;;81.25;63.00;;;;;8.06;59.55;102343.59;2086953;28;47473;-60
2022/01/15 02:45:53;;;;;;;;;82.00;68.00;;;;;8.05;59.37;102347.09;2087070;28;47247;-60
2022/01/15 02:48:00;;;;;;;;;86.50;75.50;;;;;8.05;59.24;102344.47;2087060;28;48045;-60
2022/01/15 02:49:04;;;;;;;;;87.50;78.25;;;;;8.06;59.45;102340.94;2087086;28;47301;-60
2022/01/15 02:50:07;;;;;;;;;82.75;72.00;;;;;8.05;59.49;102332.13;2081859;28;47357;-59
2022/01/15 02:51:07;;;;;;;;;83.75;73.50;;;;;8.05;59.24;102336.53;2087211;28;47813;-60
2022/01/15 02:52:08;;;;;;;;;86.25;78.00;;;;;8.05;59.31;102339.16;2085154;28;47389;-60
2022/01/15 02:53:10;;;;;;;;;89.50;83.25;;;;;8.05;59.25;102341.81;2086531;28;47310;-60
2022/01/15 02:54:10;;;;;;;;;94.67;91.00;;;;;8.06;59.36;102338.31;2086917;28;47596;-60
2022/01/15 02:55:11;;;;;;;;;96.00;89.33;;;;;8.05;59.34;102333.88;2087102;28;47416;-60
2022/01/15 02:56:11;;;;;;;;;105.00;97.33;;;;;8.04;59.47;102332.09;2087185;28;46777;-59
2022/01/15 02:57:12;;;;;;;;;99.67;95.00;;;;;8.05;59.48;102329.47;2087191;28;47098;-59
2022/01/15 02:58:13;;;;;;;;;100.67;95.33;;;;;8.03;59.28;102325.94;2087346;28;47547;-60
2022/01/15 02:59:20;;;;;;;;;101.33;94.33;;;;;8.05;59.32;102324.19;2086823;28;47011;-59
2022/01/15 03:00:21;;;;;;;;;115.67;106.33;;;;;8.06;59.42;102325.09;2087018;28;47120;-59
2022/01/15 03:01:22;;;;;;;;;116.33;111.33;;;;;8.06;59.35;102325.09;2087117;28;47765;-59
2022/01/15 03:02:23;;;;;;;;;125.67;115.00;;;;;8.06;59.36;102323.31;2087133;28;47330;-59
2022/01/15 03:03:23;;;;;;;;;115.67;108.67;;;;;8.06;59.34;102325.97;2086927;28;46929;-60
2022/01/15 03:04:24;;;;;;;;;121.00;113.67;;;;;8.05;59.47;102321.56;2086678;28;47105;-59
2022/01/15 03:05:24;;;;;;;;;116.33;110.00;;;;;8.06;59.22;102319.78;2087362;28;48074;-60
2022/01/15 03:06:25;;;;;;;;;108.67;102.00;;;;;8.06;59.36;102322.44;2085825;28;47204;-59
2022/01/15 03:07:25;;;;;;;;;115.67;108.33;;;;;8.05;59.47;102321.56;2078637;28;47292;-60
2022/01/15 03:08:26;;;;;;;;;106.33;100.33;;;;;8.04;59.51;102311.84;2086241;28;48058;-60
2022/01/15 03:09:26;;;;;;;;;118.67;106.33;;;;;8.04;59.41;102319.78;2086803;28;47212;-60
2022/01/15 03:10:27;;;;;;;;;110.00;105.00;;;;;8.05;59.50;102320.66;2087078;28;47052;-60
2022/01/15 03:11:28;;;;;;;;;114.00;106.00;;;;;8.04;59.24;102314.50;2086960;28;47715;-60
2022/01/15 03:12:29;;;;;;;;;111.67;105.33;;;;;8.04;59.40;102319.78;2087072;28;48173;-60
2022/01/15 03:13:29;;;;;;;;;109.00;103.67;;;;;8.03;59.22;102319.75;2086505;28;47451;-60
2022/01/15 03:14:31;;;;;;;;;102.67;98.33;;;;;8.03;59.65;102320.66;2086345;28;47803;-60
2022/01/15 03:15:31;;;;;;;;;108.00;105.00;;;;;8.03;59.36;102322.41;2087055;28;47280;-60
2022/01/15 03:16:32;;;;;;;;;113.67;103.00;;;;;8.03;59.30;102319.75;2086683;28;47603;-59
2022/01/15 03:17:33;;;;;;;;;110.67;106.33;;;;;8.03;59.13;102319.75;2088230;28;47211;-59
2022/01/15 03:18:33;;;;;;;;;119.33;109.33;;;;;8.02;59.27;102318.88;2087337;28;46942;-60
2022/01/15 03:19:33;;;;;;;;;109.00;103.00;;;;;8.02;59.43;102315.34;2086569;28;47308;-59
2022/01/15 03:20:34;;;;;;;;;111.67;103.33;;;;;8.00;59.24;102323.22;2087237;28;47581;-59
2022/01/15 03:21:34;;;;;;;;;112.67;107.33;;;;;8.00;59.40;102312.66;2087064;28;47168;-60
2022/01/15 03:22:35;;;;;;;;;108.33;100.00;;;;;7.99;59.26;102310.88;2087022;28;47130;-59
2022/01/15 03:23:36;;;;;;;;;110.33;105.33;;;;;8.00;59.56;102314.41;2086567;28;47759;-60
2022/01/15 03:24:36;;;;;;;;;110.00;106.00;;;;;7.97;59.30;102313.50;2086891;28;47724;-60
2022/01/15 03:25:37;;;;;;;;;107.67;105.33;;;;;7.98;59.32;102314.38;2087862;28;47225;-59
2022/01/15 03:26:37;;;;;;;;;117.67;112.00;;;;;7.96;59.04;102316.13;2087622;28;46620;-60
2022/01/15 03:27:39;;;;;;;;;108.00;101.00;;;;;7.95;59.40;102312.59;2088320;28;47358;-60
2022/01/15 03:28:40;;;;;;;;;112.67;106.33;;;;;7.95;59.28;102317.88;2087703;28;47355;-61
2022/01/15 03:29:41;;;;;;;;;113.00;105.67;;;;;7.95;59.33;102311.72;2086961;28;47690;-59
2022/01/15 03:30:41;;;;;;;;;114.00;108.00;;;;;7.93;59.34;102316.09;2087153;28;47153;-59
2022/01/15 03:31:43;;;;;;;;;107.67;102.00;;;;;7.92;59.23;102312.56;2087969;28;47394;-59
2022/01/15 03:32:43;;;;;;;;;114.00;110.00;;;;;7.91;59.18;102310.78;2088397;28;47735;-59
2022/01/15 03:33:44;;;;;;;;;111.33;103.67;;;;;7.90;59.47;102303.72;2088129;28;47184;-59
2022/01/15 03:34:45;;;;;;;;;110.00;98.00;;;;;7.90;59.44;102301.06;2088387;28;47441;-59
2022/01/15 03:35:46;;;;;;;;;110.00;102.67;;;;;7.90;59.46;102301.06;2088352;28;45391;-60
2022/01/15 03:36:46;;;;;;;;;113.67;105.00;;;;;7.89;59.67;102301.94;2088493;28;47201;-60
2022/01/15 03:37:47;;;;;;;;;107.33;100.67;;;;;7.89;59.36;102299.31;2088335;28;47563;-60
2022/01/15 03:38:47;;;;;;;;;112.00;104.67;;;;;7.89;59.48;102295.78;2088499;28;47423;-60
2022/01/15 03:39:48;;;;;;;;;111.67;102.00;;;;;7.90;59.37;102294.91;2088246;28;47593;-59
2022/01/15 03:40:48;;;;;;;;;114.00;107.00;;;;;7.89;59.27;102295.78;2087441;28;47854;-60
2022/01/15 03:41:49;;;;;;;;;103.33;97.33;;;;;7.88;59.50;102288.72;2088207;28;47234;-60
2022/01/15 03:42:49;;;;;;;;;114.67;110.00;;;;;7.87;59.47;102287.78;2088203;28;46714;-60
2022/01/15 03:43:50;;;;;;;;;111.67;104.00;;;;;7.87;59.39;102287.78;2088215;28;47600;-59
2022/01/15 03:44:50;;;;;;;;;110.00;105.00;;;;;7.86;59.29;102285.13;2087532;28;47402;-60
2022/01/15 03:45:51;;;;;;;;;107.67;102.67;;;;;7.87;59.42;102286.91;2088228;28;46248;-60
2022/01/15 03:46:51;;;;;;;;;102.67;98.67;;;;;7.86;59.16;102283.38;2087610;28;47208;-59
2022/01/15 03:47:52;;;;;;;;;112.00;107.00;;;;;7.85;59.37;102278.97;2088144;28;47940;-59
2022/01/15 03:48:53;;;;;;;;;117.00;107.33;;;;;7.86;59.59;102285.13;2087039;28;47435;-60
2022/01/15 03:49:53;;;;;;;;;114.00;104.33;;;;;7.85;59.41;102286.88;2087571;28;47534;-59
2022/01/15 03:50:54;;;;;;;;;111.33;100.67;;;;;7.83;59.28;102283.34;2087695;28;47069;-59
2022/01/15 03:51:54;;;;;;;;;106.33;102.00;;;;;7.83;59.38;102277.16;2088026;28;48000;-59
2022/01/15 03:52:55;;;;;;;;;114.67;107.67;;;;;7.83;59.08;102280.69;2087637;28;46817;-60
2022/01/15 03:53:56;;;;;;;;;110.00;105.00;;;;;7.83;59.42;102285.09;2087785;28;47923;-60
2022/01/15 03:54:57;;;;;;;;;114.33;109.67;;;;;7.82;59.37;102281.56;2087725;28;47943;-60
2022/01/15 03:55:57;;;;;;;;;111.33;105.00;;;;;7.83;59.44;102275.41;2088308;28;47187;-59
2022/01/15 03:56:59;;;;;;;;;93.33;88.67;;;;;7.83;59.53;102279.81;2088124;28;47007;-59
2022/01/15 03:58:00;;;;;;;;;111.33;106.00;;;;;7.81;59.38;102279.78;2081731;28;47543;-60
2022/01/15 03:59:01;;;;;;;;;106.33;102.33;;;;;7.82;59.47;102278.03;2082098;28;47439;-59
2022/01/15 04:00:05;;;;;;;;;103.00;96.33;;;;;7.82;59.40;102278.91;2087260;28;47573;-59
2022/01/15 04:01:06;;;;;;;;;107.33;102.00;;;;;7.81;59.40;102279.78;2087589;28;47644;-59
2022/01/15 04:02:07;;;;;;;;;105.00;97.33;;;;;7.81;59.44;102278.91;2087941;28;47243;-59
2022/01/15 04:03:08;;;;;;;;;108.00;100.00;;;;;7.79;59.33;102275.34;2088286;28;47337;-59
2022/01/15 04:04:08;;;;;;;;;101.33;94.67;;;;;7.77;59.33;102272.69;2088040;28;47556;-60
2022/01/15 04:05:10;;;;;;;;;101.33;94.67;;;;;7.77;59.44;102269.16;2088043;28;47433;-59
2022/01/15 04:06:11;;;;;;;;;110.67;103.67;;;;;7.76;59.48;102262.09;2088372;28;47327;-59
2022/01/15 04:07:11;;;;;;;;;94.67;91.33;;;;;7.75;59.14;102265.59;2088048;28;47348;-59
2022/01/15 04:08:12;;;;;;;;;109.33;100.33;;;;;7.73;59.28;102260.28;2088456;28;46846;-59
2022/01/15 04:09:13;;;;;;;;;100.00;96.00;;;;;7.73;59.42;102262.91;2087519;28;46075;-59
2022/01/15 04:10:15;;;;;;;;;96.33;91.00;;;;;7.72;59.37;102260.25;2088361;28;47386;-59
2022/01/15 04:11:15;;;;;;;;;109.33;98.67;;;;;7.71;59.37;102256.72;2087226;28;47282;-60
2022/01/15 04:12:16;;;;;;;;;117.00;108.33;;;;;7.70;59.39;102254.06;2087851;28;47591;-59
2022/01/15 04:13:16;;;;;;;;;110.33;101.33;;;;;7.70;59.52;102254.97;2088073;28;47431;-60
2022/01/15 04:14:17;;;;;;;;;106.00;101.00;;;;;7.70;59.76;102252.31;2086765;28;47116;-60
2022/01/15 04:15:18;;;;;;;;;104.33;97.33;;;;;7.71;59.62;102253.19;2083245;28;47384;-60
2022/01/15 04:16:19;;;;;;;;;108.67;101.00;;;;;7.69;59.41;102250.53;2088177;28;47127;-60
2022/01/15 04:17:19;;;;;;;;;112.33;106.00;;;;;7.70;59.41;102254.97;2087747;28;45089;-60
2022/01/15 04:18:22;;;;;;;;;103.33;96.33;;;;;7.67;59.74;102250.53;2087982;28;47381;-60
2022/01/15 04:19:24;;;;;;;;;124.33;115.67;;;;;7.68;59.60;102252.28;2088025;28;47509;-59
2022/01/15 04:20:24;;;;;;;;;119.67;110.33;;;;;7.67;59.65;102252.28;2088023;28;47941;-60
2022/01/15 04:21:26;;;;;;;;;111.33;106.00;;;;;7.66;59.33;102254.03;2088226;28;47367;-60
2022/01/15 04:22:26;;;;;;;;;109.67;102.67;;;;;7.65;59.74;102248.72;2087930;28;47424;-60
2022/01/15 04:23:26;;;;;;;;;104.00;102.00;;;;;7.65;59.44;102248.72;2088076;28;47195;-60
2022/01/15 04:24:27;;;;;;;;;108.00;101.33;;;;;7.63;59.61;102246.06;2087967;28;47166;-60
2022/01/15 04:25:27;;;;;;;;;110.67;104.00;;;;;7.62;59.53;102249.56;2087932;28;46953;-59
2022/01/15 04:26:28;;;;;;;;;108.33;100.33;;;;;7.62;59.70;102244.28;2088051;28;47160;-59
2022/01/15 04:27:29;;;;;;;;;106.33;99.33;;;;;7.61;59.73;102247.78;2088051;28;47195;-59
2022/01/15 04:28:32;;;;;;;;;103.00;96.00;;;;;7.61;59.51;102246.88;2087934;28;47096;-59
2022/01/15 04:29:33;;;;;;;;;109.67;105.00;;;;;7.59;59.59;102244.22;2087848;28;47481;-59
2022/01/15 04:30:34;;;;;;;;;110.67;106.00;;;;;7.59;59.72;102246.88;2087787;28;47799;-60
2022/01/15 04:31:46;;;;;;;;;116.67;107.33;;;;;7.57;59.93;102245.97;2086446;28;47274;-59
2022/01/15 04:32:47;;;;;;;;;106.33;103.00;;;;;7.58;59.64;102241.56;2087875;28;46559;-60
2022/01/15 04:33:47;;;;;;;;;107.67;103.33;;;;;7.57;59.87;102243.31;2087773;28;47344;-60
2022/01/15 04:34:48;;;;;;;;;100.67;97.67;;;;;7.57;59.83;102245.97;2087565;28;46122;-59
2022/01/15 04:35:48;;;;;;;;;110.00;102.33;;;;;7.56;59.92;102241.53;2087976;28;47361;-60
2022/01/15 04:36:50;;;;;;;;;112.67;106.67;;;;;7.56;59.71;102238.91;2086933;28;46050;-60
2022/01/15 04:37:55;;;;;;;;;107.33;101.00;;;;;7.56;59.83;102238.91;2086970;28;47491;-59
2022/01/15 04:38:55;;;;;;;;;112.67;103.67;;;;;7.56;59.87;102230.97;2087978;28;45188;-60
2022/01/15 04:39:56;;;;;;;;;107.33;101.00;;;;;7.56;60.08;102238.00;2088224;28;45013;-60
2022/01/15 04:40:56;;;;;;;;;110.00;101.67;;;;;7.56;59.77;102232.72;2087736;28;47524;-59
2022/01/15 04:41:56;;;;;;;;;109.33;108.33;;;;;7.55;59.85;102231.84;2087746;28;47415;-59
2022/01/15 04:42:57;;;;;;;;;110.33;103.67;;;;;7.55;59.92;102229.19;2087968;28;47614;-60
2022/01/15 04:43:57;;;;;;;;;113.00;107.33;;;;;7.55;59.98;102234.50;2087998;28;47862;-60
2022/01/15 04:44:58;;;;;;;;;111.00;103.33;;;;;7.55;59.81;102228.31;2087805;28;47142;-59
2022/01/15 04:45:59;;;;;;;;;109.00;103.33;;;;;7.54;59.93;102229.19;2087619;28;47045;-60
2022/01/15 04:46:59;;;;;;;;;106.00;101.00;;;;;7.52;59.79;102231.81;2087685;28;47737;-59
2022/01/15 04:47:59;;;;;;;;;113.00;106.33;;;;;7.53;59.83;102230.06;2088148;28;47542;-59
2022/01/15 04:49:00;;;;;;;;;113.33;105.00;;;;;7.51;60.03;102226.50;2085000;28;47180;-59
2022/01/15 04:50:02;;;;;;;;;100.67;98.00;;;;;7.52;59.78;102228.28;2087779;28;47599;-59
2022/01/15 04:51:03;;;;;;;;;107.00;100.00;;;;;7.51;59.96;102224.75;2087472;28;47367;-60
2022/01/15 04:52:04;;;;;;;;;102.67;98.00;;;;;7.51;60.00;102223.88;2087212;28;47177;-59
2022/01/15 04:53:04;;;;;;;;;114.67;107.33;;;;;7.50;59.91;102228.25;2087861;28;47160;-59
2022/01/15 04:54:05;;;;;;;;;110.33;104.33;;;;;7.50;59.74;102230.00;2088000;28;47802;-59
2022/01/15 04:55:08;;;;;;;;;106.00;98.67;;;;;7.50;60.02;102228.25;2087784;28;47674;-59
2022/01/15 04:56:08;;;;;;;;;111.67;104.33;;;;;7.50;60.22;102224.72;2087591;28;47354;-58
2022/01/15 04:57:09;;;;;;;;;110.00;104.33;;;;;7.49;60.15;102223.81;2087793;28;47700;-59
2022/01/15 04:58:10;;;;;;;;;104.33;99.33;;;;;7.49;59.93;102221.16;2088059;28;45104;-59
2022/01/15 04:59:10;;;;;;;;;105.00;100.00;;;;;7.50;60.21;102225.63;2087506;28;47536;-59
2022/01/15 05:00:14;;;;;;;;;113.00;108.33;;;;;7.51;60.05;102231.78;2084406;28;47134;-60
2022/01/15 05:01:15;;;;;;;;;106.00;103.00;;;;;7.50;59.84;102228.25;2079364;28;47235;-59
2022/01/15 05:02:16;;;;;;;;;107.67;99.67;;;;;7.50;60.01;102230.91;2086744;28;47154;-59